createdAt,value
2023-01-17T00:02:10.484Z,97203.63
2023-01-17T00:04:55.849Z,97200.28
2023-01-17T00:07:42.859Z,97202.78
2023-01-17T00:10:12.576Z,97193.59
2023-01-17T00:12:39.345Z,97201.09
2023-01-17T00:15:07.172Z,97197.75
2023-01-17T00:17:33.826Z,97194.34
2023-01-17T00:20:20.236Z,97192.66
2023-01-17T00:23:05.826Z,97190.16
2023-01-17T00:25:57.436Z,97194.34
2023-01-17T00:28:24.908Z,97193.47
2023-01-17T00:30:51.984Z,97184.28
2023-01-17T00:33:19.591Z,97179.28
2023-01-17T00:35:46.510Z,97180.97
2023-01-17T00:38:16.002Z,97180.97
2023-01-17T00:40:44.165Z,97183.44
2023-01-17T00:43:31.939Z,97183.44
2023-01-17T00:46:17.400Z,97184.16
2023-01-17T00:49:02.753Z,97183.28
2023-01-17T00:51:49.146Z,97179.09
2023-01-17T00:54:34.485Z,97175.78
2023-01-17T00:57:20.061Z,97179.13
2023-01-17T01:00:05.872Z,97174.16
2023-01-17T01:02:52.109Z,97174.16
2023-01-17T01:05:38.555Z,97165.75
2023-01-17T01:08:44.991Z,97170.00
2023-01-17T01:11:33.861Z,97174.19
2023-01-17T01:14:20.219Z,97180.06
2023-01-17T01:17:05.482Z,97180.88
2023-01-17T01:19:50.733Z,97183.44
2023-01-17T01:22:36.021Z,97181.75
2023-01-17T01:25:21.266Z,97177.53
2023-01-17T01:28:06.530Z,97181.75
2023-01-17T01:30:51.856Z,97178.41
2023-01-17T01:33:18.663Z,97174.16
2023-01-17T01:35:53.982Z,97181.81
2023-01-17T01:38:26.019Z,97189.31
2023-01-17T01:40:55.269Z,97184.31
2023-01-17T01:43:41.955Z,97184.31
2023-01-17T01:46:11.293Z,97184.31
2023-01-17T01:48:47.778Z,97186.81
2023-01-17T01:51:19.799Z,97182.63
2023-01-17T01:53:51.094Z,97181.00
2023-01-17T01:56:19.904Z,97178.50
2023-01-17T01:58:50.316Z,97171.84
2023-01-17T02:01:17.872Z,97179.38
2023-01-17T02:03:46.305Z,97176.88
2023-01-17T02:06:26.881Z,97179.38
2023-01-17T02:08:53.725Z,97176.88
2023-01-17T02:11:21.518Z,97180.22
2023-01-17T02:13:48.156Z,97178.56
2023-01-17T02:16:29.992Z,97184.47
2023-01-17T02:19:32.109Z,97181.16
2023-01-17T02:22:10.947Z,97180.31
2023-01-17T02:24:57.696Z,97179.53
2023-01-17T02:27:31.187Z,97180.38
2023-01-17T02:30:16.605Z,97172.88
2023-01-17T02:32:56.471Z,97175.38
2023-01-17T02:35:34.087Z,97178.69
2023-01-17T02:38:31.158Z,97173.72
2023-01-17T02:41:03.555Z,97174.56
2023-01-17T02:43:32.647Z,97177.91
2023-01-17T02:45:59.480Z,97181.28
2023-01-17T02:48:29.412Z,97172.00
2023-01-17T02:51:17.750Z,97176.22
2023-01-17T02:53:51.303Z,97173.72
2023-01-17T02:56:32.598Z,97178.78
2023-01-17T02:59:05.359Z,97178.78
2023-01-17T03:01:43.367Z,97178.78
2023-01-17T03:04:18.474Z,97179.53
2023-01-17T03:06:52.452Z,97185.44
2023-01-17T03:09:20.341Z,97185.47
2023-01-17T03:11:47.266Z,97193.81
2023-01-17T03:14:13.974Z,97190.44
2023-01-17T03:16:40.787Z,97201.34
2023-01-17T03:19:09.718Z,97196.25
2023-01-17T03:21:36.411Z,97198.75
2023-01-17T03:24:03.134Z,97200.44
2023-01-17T03:26:30.125Z,97201.22
2023-01-17T03:28:56.754Z,97211.19
2023-01-17T03:31:23.595Z,97205.22
2023-01-17T03:33:50.239Z,97213.53
2023-01-17T03:36:16.890Z,97217.63
2023-01-17T03:38:43.817Z,97216.66
2023-01-17T03:41:10.462Z,97221.63
2023-01-17T03:43:37.114Z,97223.25
2023-01-17T03:46:17.384Z,97219.03
2023-01-17T03:48:44.012Z,97223.97
2023-01-17T03:51:10.678Z,97229.81
2023-01-17T03:53:37.306Z,97230.56
2023-01-17T03:56:04.144Z,97230.53
2023-01-17T03:58:30.767Z,97232.91
2023-01-17T04:00:57.493Z,97232.91
2023-01-17T04:03:24.201Z,97233.72
2023-01-17T04:05:50.830Z,97229.47
2023-01-17T04:08:17.610Z,97228.50
2023-01-17T04:10:44.223Z,97235.31
2023-01-17T04:13:10.867Z,97237.78
2023-01-17T04:15:37.486Z,97234.47
2023-01-17T04:18:05.057Z,97236.88
2023-01-17T04:20:37.455Z,97246.97
2023-01-17T04:23:04.816Z,97251.13
2023-01-17T04:25:31.478Z,97253.66
2023-01-17T04:27:59.703Z,97258.72
2023-01-17T04:30:28.118Z,97252.84
2023-01-17T04:32:55.801Z,97262.06
2023-01-17T04:35:22.469Z,97265.41
2023-01-17T04:37:49.273Z,97258.75
2023-01-17T04:40:16.211Z,97261.25
2023-01-17T04:42:45.644Z,97257.13
2023-01-17T04:45:12.752Z,97263.78
2023-01-17T04:47:39.429Z,97262.13
2023-01-17T04:50:06.840Z,97261.31
2023-01-17T04:52:33.463Z,97269.75
2023-01-17T04:55:00.091Z,97268.03
2023-01-17T04:57:27.211Z,97274.75
2023-01-17T04:59:53.830Z,97272.25
2023-01-17T05:02:20.711Z,97274.72
2023-01-17T05:04:47.540Z,97273.69
2023-01-17T05:07:14.188Z,97279.69
2023-01-17T05:09:40.814Z,97286.44
2023-01-17T05:12:07.498Z,97296.44
2023-01-17T05:14:34.428Z,97305.69
2023-01-17T05:17:03.008Z,97300.63
2023-01-17T05:19:29.892Z,97305.69
2023-01-17T05:22:03.567Z,97314.81
2023-01-17T05:24:31.099Z,97316.44
2023-01-17T05:27:03.755Z,97330.66
2023-01-17T05:29:30.710Z,97331.44
2023-01-17T05:31:57.750Z,97334.69
2023-01-17T05:34:25.143Z,97348.88
2023-01-17T05:36:51.866Z,97357.09
2023-01-17T05:39:18.496Z,97371.34
2023-01-17T05:41:45.714Z,97371.22
2023-01-17T05:44:12.500Z,97378.75
2023-01-17T05:46:39.194Z,97382.06
2023-01-17T05:49:07.127Z,97395.41
2023-01-17T05:51:37.564Z,97396.97
2023-01-17T05:54:05.379Z,97414.38
2023-01-17T05:56:32.348Z,97410.13
2023-01-17T05:58:59.006Z,97421.00
2023-01-17T06:01:25.851Z,97422.59
2023-01-17T06:03:52.536Z,97424.38
2023-01-17T06:06:19.221Z,97421.88
2023-01-17T06:08:45.825Z,97446.81
2023-01-17T06:11:12.454Z,97450.03
2023-01-17T06:13:39.080Z,97455.78
2023-01-17T06:16:06.106Z,97459.84
2023-01-17T06:18:32.977Z,97480.66
2023-01-17T06:20:59.614Z,97489.78
2023-01-17T06:23:26.247Z,97495.63
2023-01-17T06:25:52.905Z,97500.56
2023-01-17T06:28:21.885Z,97503.00
2023-01-17T06:30:48.982Z,97503.78
2023-01-17T06:33:15.864Z,97504.63
2023-01-17T06:35:52.477Z,97513.63
2023-01-17T06:38:19.625Z,97517.75
2023-01-17T06:40:48.075Z,97524.41
2023-01-17T06:43:16.644Z,97536.88
2023-01-17T06:45:43.284Z,97546.06
2023-01-17T06:48:09.924Z,97548.56
2023-01-17T06:50:36.779Z,97557.75
2023-01-17T06:53:05.700Z,97555.25
2023-01-17T06:55:33.964Z,97567.75
2023-01-17T06:58:02.393Z,97575.19
2023-01-17T07:00:30.614Z,97580.09
2023-01-17T07:02:57.342Z,97580.09
2023-01-17T07:05:23.831Z,97590.16
2023-01-17T07:07:50.317Z,97589.31
2023-01-17T07:10:16.945Z,97598.50
2023-01-17T07:12:43.387Z,97603.53
2023-01-17T07:15:10.621Z,97607.75
2023-01-17T07:17:37.325Z,97614.44
2023-01-17T07:20:04.176Z,97616.09
2023-01-17T07:22:30.745Z,97626.97
2023-01-17T07:24:58.595Z,97628.63
2023-01-17T07:27:27.618Z,97633.63
2023-01-17T07:29:54.375Z,97648.59
2023-01-17T07:32:20.982Z,97649.50
2023-01-17T07:34:47.459Z,97654.44
2023-01-17T07:37:15.290Z,97649.28
2023-01-17T07:39:42.055Z,97668.47
2023-01-17T07:42:09.095Z,97670.16
2023-01-17T07:44:41.954Z,97681.06
2023-01-17T07:47:08.390Z,97678.56
2023-01-17T07:49:35.944Z,97677.59
2023-01-17T07:52:02.640Z,97686.00
2023-01-17T07:54:29.075Z,97694.97
2023-01-17T07:56:55.903Z,97702.28
2023-01-17T07:59:22.938Z,97709.72
2023-01-17T08:01:49.453Z,97706.25
2023-01-17T08:04:16.027Z,97714.44
2023-01-17T08:06:47.338Z,97716.88
2023-01-17T08:09:14.025Z,97720.16
2023-01-17T08:11:40.469Z,97722.63
2023-01-17T08:14:06.933Z,97718.47
2023-01-17T08:16:33.429Z,97725.97
2023-01-17T08:18:59.887Z,97726.75
2023-01-17T08:21:27.890Z,97731.03
2023-01-17T08:23:54.351Z,97731.75
2023-01-17T08:26:22.148Z,97745.28
2023-01-17T08:28:57.762Z,97746.19
2023-01-17T08:31:24.535Z,97752.81
2023-01-17T08:33:51.094Z,97763.56
2023-01-17T08:36:18.040Z,97766.06
2023-01-17T08:38:45.319Z,97772.75
2023-01-17T08:41:12.881Z,97772.81
2023-01-17T08:43:39.365Z,97777.00
2023-01-17T08:46:06.264Z,97790.50
2023-01-17T08:48:32.826Z,97795.59
2023-01-17T08:51:03.090Z,97793.09
2023-01-17T08:53:29.867Z,97798.94
2023-01-17T08:56:01.885Z,97802.16
2023-01-17T08:58:30.798Z,97816.44
2023-01-17T09:01:05.789Z,97817.34
2023-01-17T09:03:35.066Z,97816.59
2023-01-17T09:06:03.246Z,97825.72
2023-01-17T09:08:30.594Z,97821.69
2023-01-17T09:10:57.522Z,97823.44
2023-01-17T09:13:24.385Z,97829.34
2023-01-17T09:15:55.844Z,97825.16
2023-01-17T09:18:22.472Z,97828.59
2023-01-17T09:20:49.091Z,97823.53
2023-01-17T09:23:15.749Z,97825.31
2023-01-17T09:25:44.689Z,97836.25
2023-01-17T09:28:11.356Z,97837.16
2023-01-17T09:30:38.017Z,97836.25
2023-01-17T09:33:04.631Z,97842.91
2023-01-17T09:35:31.262Z,97844.63
2023-01-17T09:37:58.273Z,97855.50
2023-01-17T09:40:25.500Z,97858.00
2023-01-17T09:42:59.795Z,97858.09
2023-01-17T09:45:31.950Z,97871.41
2023-01-17T09:48:01.137Z,97875.53
2023-01-17T09:50:32.908Z,97880.63
2023-01-17T09:53:02.375Z,97882.28
2023-01-17T09:55:37.127Z,97888.81
2023-01-17T09:58:19.370Z,97882.03
2023-01-17T10:01:17.359Z,97887.81
2023-01-17T10:04:21.403Z,97890.22
2023-01-17T10:07:12.576Z,97892.63
2023-01-17T10:10:10.932Z,97885.91
2023-01-17T10:13:03.853Z,97887.50
2023-01-17T10:16:04.261Z,97903.38
2023-01-17T10:18:56.122Z,97903.53
2023-01-17T10:21:50.763Z,97904.38
2023-01-17T10:25:03.884Z,97907.78
2023-01-17T10:27:35.032Z,97912.78
2023-01-17T10:30:12.379Z,97909.56
2023-01-17T10:32:46.323Z,97911.25
2023-01-17T10:35:27.180Z,97921.28
2023-01-17T10:37:57.004Z,97919.53
2023-01-17T10:40:51.080Z,97915.44
2023-01-17T10:43:30.637Z,97909.56
2023-01-17T10:45:57.464Z,97916.22
2023-01-17T10:48:35.406Z,97917.78
2023-01-17T10:51:25.916Z,97919.59
2023-01-17T10:54:23.024Z,97920.44
2023-01-17T10:56:49.781Z,97914.59
2023-01-17T10:59:34.829Z,97921.38
2023-01-17T11:02:07.293Z,97914.75
2023-01-17T11:04:37.373Z,97921.53
2023-01-17T11:07:14.708Z,97936.56
2023-01-17T11:09:45.008Z,97930.81
2023-01-17T11:12:22.710Z,97925.97
2023-01-17T11:15:02.476Z,97934.41
2023-01-17T11:17:30.734Z,97925.25
2023-01-17T11:20:26.362Z,97927.22
2023-01-17T11:23:17.674Z,97924.78
2023-01-17T11:25:58.096Z,97927.28
2023-01-17T11:28:30.202Z,97922.19
2023-01-17T11:30:58.370Z,97930.69
2023-01-17T11:33:44.898Z,97933.28
2023-01-17T11:36:29.063Z,97925.75
2023-01-17T11:39:14.181Z,97929.22
2023-01-17T11:41:41.380Z,97930.22
2023-01-17T11:44:23.134Z,97931.19
2023-01-17T11:47:08.794Z,97932.88
2023-01-17T11:49:35.565Z,97927.94
2023-01-17T11:52:09.221Z,97930.53
2023-01-17T11:54:42.595Z,97943.13
2023-01-17T11:57:33.191Z,97938.16
2023-01-17T12:00:19.548Z,97940.69
2023-01-17T12:03:10.670Z,97942.41
2023-01-17T12:05:41.599Z,97948.28
2023-01-17T12:08:39.877Z,97956.69
2023-01-17T12:11:28.069Z,97955.03
2023-01-17T12:14:25.941Z,97956.94
2023-01-17T12:16:55.884Z,97966.38
2023-01-17T12:19:41.393Z,97962.34
2023-01-17T12:22:41.950Z,97966.63
2023-01-17T12:25:26.830Z,97963.28
2023-01-17T12:28:25.698Z,97975.81
2023-01-17T12:31:18.273Z,97975.03
2023-01-17T12:34:08.108Z,97971.84
2023-01-17T12:37:10.933Z,97981.84
2023-01-17T12:39:43.418Z,97984.38
2023-01-17T12:42:20.570Z,97986.81
2023-01-17T12:45:00.247Z,97985.13
2023-01-17T12:47:26.951Z,97980.91
2023-01-17T12:50:09.338Z,97991.00
2023-01-17T12:52:52.235Z,97986.75
2023-01-17T12:55:32.401Z,97980.75
2023-01-17T12:58:02.245Z,97992.66
2023-01-17T13:00:32.890Z,97993.50
2023-01-17T13:03:20.903Z,97993.53
2023-01-17T13:05:48.686Z,97995.25
2023-01-17T13:08:20.518Z,97995.25
2023-01-17T13:10:59.107Z,97996.94
2023-01-17T13:13:28.122Z,97997.84
2023-01-17T13:16:15.976Z,97995.38
2023-01-17T13:18:47.963Z,97998.66
2023-01-17T13:21:30.298Z,98003.56
2023-01-17T13:23:58.936Z,98001.81
2023-01-17T13:26:56.080Z,98006.88
2023-01-17T13:29:52.158Z,98011.03
2023-01-17T13:32:28.625Z,98005.88
2023-01-17T13:35:10.709Z,98009.94
2023-01-17T13:37:54.600Z,98008.28
2023-01-17T13:40:34.971Z,98023.28
2023-01-17T13:43:11.911Z,98014.72
2023-01-17T13:45:38.934Z,98025.56
2023-01-17T13:48:11.685Z,98028.94
2023-01-17T13:50:38.238Z,98033.09
2023-01-17T13:53:43.942Z,98038.09
2023-01-17T13:56:34.071Z,98039.78
2023-01-17T13:59:03.173Z,98043.13
2023-01-17T14:01:34.612Z,98043.13
2023-01-17T14:04:04.109Z,98050.50
2023-01-17T14:06:46.555Z,98052.94
2023-01-17T14:09:25.091Z,98045.19
2023-01-17T14:11:51.954Z,98053.47
2023-01-17T14:14:43.573Z,98057.53
2023-01-17T14:17:15.365Z,98060.06
2023-01-17T14:19:45.974Z,98061.66
2023-01-17T14:22:18.784Z,98060.66
2023-01-17T14:25:02.040Z,98063.09
2023-01-17T14:27:34.496Z,98068.03
2023-01-17T14:30:02.757Z,98071.34
2023-01-17T14:32:32.816Z,98068.72
2023-01-17T14:34:59.717Z,98072.03
2023-01-17T14:37:44.015Z,98079.44
2023-01-17T14:40:26.334Z,98075.22
2023-01-17T14:42:58.973Z,98082.66
2023-01-17T14:45:31.397Z,98079.97
2023-01-17T14:48:02.009Z,98089.19
2023-01-17T14:50:49.982Z,98089.13
2023-01-17T14:53:20.666Z,98094.84
2023-01-17T14:55:47.220Z,98098.94
2023-01-17T14:58:29.258Z,98092.09
2023-01-17T15:01:02.283Z,98095.28
2023-01-17T15:03:31.789Z,98096.81
2023-01-17T15:06:11.208Z,98096.72
2023-01-17T15:08:39.149Z,98092.38
2023-01-17T15:11:09.373Z,98103.31
2023-01-17T15:13:45.240Z,98093.19
2023-01-17T15:16:29.931Z,98093.88
2023-01-17T15:18:57.243Z,98098.81
2023-01-17T15:21:27.885Z,98102.78
2023-01-17T15:23:57.743Z,98099.44
2023-01-17T15:26:27.348Z,98110.31
2023-01-17T15:29:03.129Z,98116.84
2023-01-17T15:31:42.643Z,98115.13
2023-01-17T15:34:19.167Z,98118.38
2023-01-17T15:36:48.799Z,98118.25
2023-01-17T15:39:24.699Z,98118.94
2023-01-17T15:41:53.366Z,98111.13
2023-01-17T15:44:49.313Z,98127.13
2023-01-17T15:47:34.286Z,98129.44
2023-01-17T15:50:28.421Z,98128.53
2023-01-17T15:52:58.818Z,98125.03
2023-01-17T15:55:31.074Z,98131.63
2023-01-17T15:57:57.921Z,98130.69
2023-01-17T16:00:32.472Z,98126.38
2023-01-17T16:02:59.548Z,98135.34
2023-01-17T16:05:25.988Z,98135.31
2023-01-17T16:07:56.312Z,98130.16
2023-01-17T16:10:28.613Z,98139.25
2023-01-17T16:12:59.489Z,98138.34
2023-01-17T16:15:27.341Z,98141.47
2023-01-17T16:18:02.699Z,98153.91
2023-01-17T16:20:35.413Z,98149.50
2023-01-17T16:23:02.532Z,98145.22
2023-01-17T16:25:32.896Z,98161.03
2023-01-17T16:27:59.983Z,98156.59
2023-01-17T16:30:27.276Z,98175.03
2023-01-17T16:32:55.248Z,98175.75
2023-01-17T16:35:24.266Z,98180.75
2023-01-17T16:37:55.828Z,98178.22
2023-01-17T16:40:28.343Z,98181.50
2023-01-17T16:42:59.044Z,98179.66
2023-01-17T16:45:25.692Z,98182.16
2023-01-17T16:47:53.896Z,98190.31
2023-01-17T16:50:23.753Z,98192.75
2023-01-17T16:52:51.851Z,98193.41
2023-01-17T16:55:21.968Z,98199.16
2023-01-17T16:57:50.126Z,98194.72
2023-01-17T17:00:17.325Z,98213.09
2023-01-17T17:02:44.246Z,98209.59
2023-01-17T17:05:11.301Z,98212.03
2023-01-17T17:07:42.668Z,98223.59
2023-01-17T17:10:10.323Z,98219.31
2023-01-17T17:12:36.820Z,98221.75
2023-01-17T17:15:03.477Z,98228.34
2023-01-17T17:17:29.963Z,98233.25
2023-01-17T17:19:56.419Z,98229.75
2023-01-17T17:22:22.857Z,98227.25
2023-01-17T17:24:49.388Z,98233.78
2023-01-17T17:27:15.818Z,98229.56
2023-01-17T17:29:42.475Z,98234.50
2023-01-17T17:32:11.456Z,98237.69
2023-01-17T17:34:38.602Z,98246.84
2023-01-17T17:37:05.235Z,98245.06
2023-01-17T17:39:32.195Z,98252.44
2023-01-17T17:41:58.853Z,98261.50
2023-01-17T17:44:25.705Z,98263.16
2023-01-17T17:46:52.361Z,98262.91
2023-01-17T17:49:20.345Z,98269.72
2023-01-17T17:51:47.924Z,98269.50
2023-01-17T17:54:15.876Z,98279.50
2023-01-17T17:56:47.254Z,98276.00
2023-01-17T17:59:18.134Z,98270.88
2023-01-17T18:01:46.003Z,98269.94
2023-01-17T18:04:12.714Z,98270.69
2023-01-17T18:06:39.916Z,98274.84
2023-01-17T18:09:08.865Z,98270.56
2023-01-17T18:11:37.111Z,98280.47
2023-01-17T18:14:05.464Z,98281.31
2023-01-17T18:16:41.314Z,98287.03
2023-01-17T18:19:13.399Z,98290.34
2023-01-17T18:21:40.300Z,98296.19
2023-01-17T18:24:10.213Z,98301.09
2023-01-17T18:26:36.953Z,98306.09
2023-01-17T18:29:05.302Z,98305.94
2023-01-17T18:31:32.112Z,98305.03
2023-01-17T18:34:02.994Z,98302.44
2023-01-17T18:36:29.779Z,98301.50
2023-01-17T18:38:56.711Z,98304.72
2023-01-17T18:41:28.783Z,98301.38
2023-01-17T18:43:58.729Z,98307.84
2023-01-17T18:46:25.953Z,98305.22
2023-01-17T18:48:55.633Z,98303.34
2023-01-17T18:51:22.515Z,98306.47
2023-01-17T18:53:49.387Z,98303.00
2023-01-17T18:56:18.723Z,98308.00
2023-01-17T18:58:46.914Z,98303.00
2023-01-17T19:01:25.740Z,98306.34
2023-01-17T19:03:59.071Z,98304.69
2023-01-17T19:06:39.712Z,98314.75
2023-01-17T19:09:07.855Z,98311.34
2023-01-17T19:11:35.108Z,98318.75
2023-01-17T19:14:03.037Z,98307.69
2023-01-17T19:16:31.874Z,98319.53
2023-01-17T19:19:03.011Z,98309.47
2023-01-17T19:21:30.177Z,98310.97
2023-01-17T19:23:57.410Z,98317.66
2023-01-17T19:26:24.977Z,98311.69
2023-01-17T19:28:51.898Z,98313.38
2023-01-17T19:31:23.921Z,98315.75
2023-01-17T19:33:53.436Z,98318.16
2023-01-17T19:36:23.325Z,98312.09
2023-01-17T19:39:03.428Z,98316.16
2023-01-17T19:41:31.528Z,98319.41
2023-01-17T19:44:05.732Z,98317.63
2023-01-17T19:46:33.120Z,98324.16
2023-01-17T19:49:00.028Z,98326.66
2023-01-17T19:51:26.827Z,98333.38
2023-01-17T19:53:54.769Z,98323.31
2023-01-17T19:56:24.072Z,98323.31
2023-01-17T19:58:51.935Z,98325.81
2023-01-17T20:01:25.038Z,98330.72
2023-01-17T20:03:51.987Z,98331.41
2023-01-17T20:06:24.156Z,98331.28
2023-01-17T20:08:51.009Z,98336.09
2023-01-17T20:11:20.377Z,98330.03
2023-01-17T20:13:48.433Z,98334.06
2023-01-17T20:16:17.744Z,98327.31
2023-01-17T20:18:45.530Z,98330.59
2023-01-17T20:21:17.022Z,98339.63
2023-01-17T20:23:46.940Z,98345.31
2023-01-17T20:26:15.759Z,98342.66
2023-01-17T20:28:44.928Z,98340.06
2023-01-17T20:31:20.460Z,98342.50
2023-01-17T20:33:50.124Z,98342.41
2023-01-17T20:36:18.506Z,98342.34
2023-01-17T20:38:45.767Z,98343.03
2023-01-17T20:41:13.776Z,98338.84
2023-01-17T20:43:42.012Z,98344.69
2023-01-17T20:46:09.764Z,98343.75
2023-01-17T20:48:37.641Z,98353.63
2023-01-17T20:51:10.609Z,98346.78
2023-01-17T20:53:39.103Z,98354.19
2023-01-17T20:56:07.885Z,98357.44
2023-01-17T20:58:35.030Z,98357.38
2023-01-17T21:01:02.125Z,98363.13
2023-01-17T21:03:29.206Z,98363.06
2023-01-17T21:06:06.201Z,98370.34
2023-01-17T21:08:35.057Z,98364.38
2023-01-17T21:11:01.867Z,98360.09
2023-01-17T21:13:28.982Z,98365.75
2023-01-17T21:15:55.724Z,98359.75
2023-01-17T21:18:24.714Z,98365.59
2023-01-17T21:20:51.906Z,98368.00
2023-01-17T21:23:19.955Z,98370.44
2023-01-17T21:25:49.284Z,98382.78
2023-01-17T21:28:15.989Z,98376.09
2023-01-17T21:30:42.645Z,98375.94
2023-01-17T21:33:09.365Z,98385.13
2023-01-17T21:35:36.047Z,98390.78
2023-01-17T21:38:02.750Z,98394.16
2023-01-17T21:40:29.424Z,98394.06
2023-01-17T21:42:56.070Z,98398.19
2023-01-17T21:45:26.132Z,98389.69
2023-01-17T21:47:52.688Z,98395.47
2023-01-17T21:50:32.745Z,98392.78
2023-01-17T21:52:59.835Z,98391.59
2023-01-17T21:55:45.259Z,98402.59
2023-01-17T21:58:35.644Z,98402.69
2023-01-17T22:01:15.730Z,98394.03
2023-01-17T22:03:43.510Z,98418.22
2023-01-17T22:06:10.422Z,98406.38
2023-01-17T22:08:37.716Z,98419.00
2023-01-17T22:11:10.851Z,98420.72
2023-01-17T22:13:40.676Z,98419.88
2023-01-17T22:16:10.528Z,98429.91
2023-01-17T22:18:38.891Z,98433.19
2023-01-17T22:21:08.145Z,98437.31
2023-01-17T22:23:36.278Z,98439.00
2023-01-17T22:26:05.120Z,98432.34
2023-01-17T22:28:32.766Z,98436.63
2023-01-17T22:31:08.771Z,98440.56
2023-01-17T22:33:36.590Z,98450.63
2023-01-17T22:36:03.778Z,98449.78
2023-01-17T22:38:31.362Z,98451.47
2023-01-17T22:41:09.065Z,98452.16
2023-01-17T22:43:44.988Z,98453.09
2023-01-17T22:46:18.052Z,98456.34
2023-01-17T22:48:45.383Z,98451.31
2023-01-17T22:51:14.993Z,98456.28
2023-01-17T22:53:45.762Z,98458.69
2023-01-17T22:56:16.270Z,98461.97
2023-01-17T22:58:44.811Z,98457.66
2023-01-17T23:01:14.192Z,98460.94
2023-01-17T23:03:41.802Z,98466.50
2023-01-17T23:06:13.645Z,98467.28
2023-01-17T23:08:42.715Z,98467.88
2023-01-17T23:11:46.078Z,98484.28
2023-01-17T23:14:17.105Z,98473.97
2023-01-17T23:17:22.846Z,98479.03
2023-01-17T23:19:52.347Z,98478.88
2023-01-17T23:22:20.294Z,98479.56
2023-01-17T23:24:58.776Z,98477.06
2023-01-17T23:27:53.426Z,98481.84
2023-01-17T23:30:29.284Z,98494.25
2023-01-17T23:32:59.924Z,98492.59
2023-01-17T23:35:35.537Z,98496.53
2023-01-17T23:38:21.771Z,98494.47
2023-01-17T23:41:08.815Z,98497.75
2023-01-17T23:43:36.362Z,98499.34
2023-01-17T23:46:05.024Z,98496.84
2023-01-17T23:48:31.726Z,98489.31
2023-01-17T23:51:00.821Z,98499.44
2023-01-17T23:53:27.769Z,98496.09
2023-01-17T23:55:56.408Z,98495.25
2023-01-17T23:58:26.584Z,98496.00
